createdAt,value
2022-11-28T00:00:48.986Z,11.9
2022-11-28T00:03:50.942Z,12.4
2022-11-28T00:06:52.912Z,12.8
2022-11-28T00:09:54.886Z,11
2022-11-28T00:12:56.845Z,12.1
2022-11-28T00:15:58.828Z,13.4
2022-11-28T00:19:00.767Z,13
2022-11-28T00:22:02.794Z,11.9
2022-11-28T00:25:04.692Z,14
2022-11-28T00:28:06.659Z,12.5
2022-11-28T00:31:08.619Z,12.1
2022-11-28T00:34:10.616Z,12.7
2022-11-28T00:37:12.576Z,14.5
2022-11-28T00:40:14.529Z,13.4
2022-11-28T00:43:16.457Z,13
2022-11-28T00:46:18.577Z,12.8
2022-11-28T00:49:20.439Z,13.5
2022-11-28T00:52:22.415Z,13.1
2022-11-28T00:55:24.379Z,15.8
2022-11-28T00:58:26.369Z,12.8
2022-11-28T01:01:28.332Z,12.3
2022-11-28T01:04:30.311Z,12.8
2022-11-28T01:07:32.327Z,12.9
2022-11-28T01:10:34.200Z,12.1
2022-11-28T01:13:36.203Z,15.7
2022-11-28T01:16:38.155Z,15.5
2022-11-28T01:19:40.086Z,14.1
2022-11-28T01:22:42.084Z,11.4
2022-11-28T01:25:44.042Z,15.3
2022-11-28T01:28:45.975Z,14.3
2022-11-28T01:31:47.998Z,12.1
2022-11-28T01:34:49.937Z,14.5
2022-11-28T01:37:51.894Z,11.6
2022-11-28T01:40:53.838Z,15.2
2022-11-28T01:43:55.829Z,11.9
2022-11-28T01:46:57.874Z,12.9
2022-11-28T01:49:59.729Z,15.4
2022-11-28T01:53:01.711Z,12.6
2022-11-28T01:56:03.721Z,13.6
2022-11-28T01:59:05.696Z,12
2022-11-28T02:02:07.805Z,13.3
2022-11-28T02:05:09.578Z,13.2
2022-11-28T02:08:11.570Z,14.8
2022-11-28T02:11:13.533Z,13.8
2022-11-28T02:14:15.508Z,13.5
2022-11-28T02:17:17.475Z,13.9
2022-11-28T02:20:19.397Z,15
2022-11-28T02:23:21.348Z,12.1
2022-11-28T02:26:23.316Z,14.3
2022-11-28T02:29:25.272Z,15
2022-11-28T02:32:27.231Z,15.9
2022-11-28T02:35:29.191Z,14.6
2022-11-28T02:38:31.149Z,14.9
2022-11-28T02:41:33.104Z,14.5
2022-11-28T02:44:35.103Z,15.2
2022-11-28T02:47:37.064Z,16.6
2022-11-28T02:50:39.037Z,13
2022-11-28T02:53:40.993Z,15
2022-11-28T02:56:42.916Z,13.6
2022-11-28T02:59:44.939Z,14.9
2022-11-28T03:02:47.070Z,12.8
2022-11-28T03:05:48.852Z,13.6
2022-11-28T03:08:50.816Z,13.2
2022-11-28T03:11:52.762Z,13.7
2022-11-28T03:14:54.698Z,14.1
2022-11-28T03:17:56.651Z,12.4
2022-11-28T03:20:58.619Z,14.3
2022-11-28T03:24:00.586Z,14.6
2022-11-28T03:27:02.549Z,15
2022-11-28T03:30:04.595Z,15.8
2022-11-28T03:33:06.481Z,15
2022-11-28T03:36:08.440Z,14.7
2022-11-28T03:39:10.429Z,13.7
2022-11-28T03:42:12.402Z,13.1
2022-11-28T03:45:14.326Z,13
2022-11-28T03:48:16.269Z,14.5
2022-11-28T03:51:18.237Z,15.2
2022-11-28T03:54:20.273Z,14
2022-11-28T03:57:22.230Z,14.7
2022-11-28T04:00:24.201Z,15.5
2022-11-28T04:03:26.300Z,14.3
2022-11-28T04:06:28.146Z,14.3
2022-11-28T04:09:30.094Z,15.8
2022-11-28T04:12:32.048Z,15.7
2022-11-28T04:15:34.004Z,15.6
2022-11-28T04:18:36.029Z,15.2
2022-11-28T04:21:37.969Z,15.6
2022-11-28T04:24:40.027Z,19.2
2022-11-28T04:27:41.877Z,14.9
2022-11-28T04:30:43.832Z,15.7
2022-11-28T04:33:45.812Z,18.2
2022-11-28T04:36:47.746Z,16.6
2022-11-28T04:39:49.679Z,14.4
2022-11-28T04:42:53.070Z,16.4
2022-11-28T04:45:53.703Z,19
2022-11-28T04:48:55.578Z,16.3
2022-11-28T04:51:57.544Z,17.8
2022-11-28T04:54:59.502Z,15.9
2022-11-28T04:58:01.464Z,15.6
2022-11-28T05:01:03.489Z,15.8
2022-11-28T05:04:05.432Z,16.4
2022-11-28T05:07:07.371Z,15.1
2022-11-28T05:10:09.358Z,15.3
2022-11-28T05:13:11.342Z,18.4
2022-11-28T05:16:13.316Z,14.6
2022-11-28T05:19:15.248Z,18.4
2022-11-28T05:22:17.237Z,15
2022-11-28T05:25:19.151Z,18.5
2022-11-28T05:28:21.148Z,15.3
2022-11-28T05:31:23.142Z,15.7
2022-11-28T05:34:25.039Z,17.5
2022-11-28T05:37:27.062Z,17.5
2022-11-28T05:40:28.960Z,16
2022-11-28T05:43:30.920Z,16.8
2022-11-28T05:46:32.881Z,14.8
2022-11-28T05:49:34.838Z,13.6
2022-11-28T05:52:36.854Z,18.8
2022-11-28T05:55:38.814Z,13.7
2022-11-28T05:58:40.738Z,15.9
2022-11-28T06:01:42.733Z,17.5
2022-11-28T06:04:44.778Z,14.4
2022-11-28T06:07:46.648Z,14.8
2022-11-28T06:10:48.548Z,17
2022-11-28T06:13:50.505Z,15.8
2022-11-28T06:16:52.515Z,13.7
2022-11-28T06:19:54.434Z,16.1
2022-11-28T06:22:56.382Z,18.5
2022-11-28T06:25:58.455Z,17.4
2022-11-28T06:29:00.313Z,18.4
2022-11-28T06:32:02.338Z,15.8
2022-11-28T06:35:04.217Z,17.9
2022-11-28T06:38:09.033Z,16.9
2022-11-28T06:41:08.170Z,20.4
2022-11-28T06:44:10.134Z,15.4
2022-11-28T06:47:12.066Z,16.9
2022-11-28T06:50:14.051Z,15.9
2022-11-28T06:53:15.968Z,15.3
2022-11-28T06:56:17.931Z,17.1
2022-11-28T06:59:19.944Z,17.8
2022-11-28T07:02:21.984Z,18.2
2022-11-28T07:05:23.846Z,18.8
2022-11-28T07:08:25.936Z,17.7
2022-11-28T07:11:27.799Z,17.2
2022-11-28T07:14:29.732Z,17.7
2022-11-28T07:17:31.704Z,19.5
2022-11-28T07:20:33.666Z,15.9
2022-11-28T07:23:35.646Z,18.2
2022-11-28T07:26:37.665Z,19.6
2022-11-28T07:29:39.587Z,18.4
2022-11-28T07:32:41.568Z,18
2022-11-28T07:35:43.534Z,14.4
2022-11-28T07:38:45.492Z,17.7
2022-11-28T07:41:47.430Z,16.3
2022-11-28T07:44:49.394Z,15.3
2022-11-28T07:47:51.366Z,20.8
2022-11-28T07:50:53.330Z,17.2
2022-11-28T07:53:55.285Z,14.1
2022-11-28T07:57:12.173Z,18
2022-11-28T07:59:59.234Z,16.6
2022-11-28T08:03:01.179Z,17.6
2022-11-28T08:06:03.382Z,17
2022-11-28T08:09:05.091Z,16.2
2022-11-28T08:12:07.061Z,15.8
2022-11-28T08:15:09.041Z,16
2022-11-28T08:18:10.975Z,16.2
2022-11-28T08:21:12.932Z,14.3
2022-11-28T08:24:14.926Z,16.4
2022-11-28T08:27:16.853Z,19.9
2022-11-28T08:30:18.826Z,16.4
2022-11-28T08:33:20.789Z,19.8
2022-11-28T08:36:22.791Z,18.9
2022-11-28T08:39:25.408Z,18.7
2022-11-28T08:42:26.684Z,18.2
2022-11-28T08:45:28.749Z,16.3
2022-11-28T08:48:30.604Z,15.3
2022-11-28T08:51:32.559Z,17.1
2022-11-28T08:54:34.555Z,16.3
2022-11-28T08:57:36.495Z,20.4
2022-11-28T09:00:38.464Z,19.1
2022-11-28T09:03:40.459Z,18.4
2022-11-28T09:06:42.383Z,19
2022-11-28T09:09:44.770Z,19.1
2022-11-28T09:12:46.286Z,20.7
2022-11-28T09:15:51.313Z,17.5
2022-11-28T09:18:50.229Z,18.6
2022-11-28T09:21:57.458Z,15.3
2022-11-28T09:24:54.144Z,20.2
2022-11-28T09:27:56.094Z,17.6
2022-11-28T09:30:58.107Z,14.5
2022-11-28T09:34:00.016Z,19.5
2022-11-28T09:37:04.753Z,16.6
2022-11-28T09:40:12.895Z,18.4
2022-11-28T09:43:05.965Z,18.8
2022-11-28T09:46:07.988Z,19.2
2022-11-28T09:49:09.883Z,18.2
2022-11-28T09:52:12.016Z,16
2022-11-28T09:55:13.843Z,15.9
2022-11-28T09:58:15.816Z,15.7
2022-11-28T10:01:17.777Z,14
2022-11-28T10:04:19.815Z,18.2
2022-11-28T10:07:21.734Z,13.7
2022-11-28T10:10:23.656Z,15
2022-11-28T10:13:32.623Z,11.5
2022-11-28T10:16:27.635Z,14.1
2022-11-28T10:19:53.154Z,13.6
2022-11-28T10:22:31.493Z,14.6
2022-11-28T10:25:33.475Z,16.6
2022-11-28T10:28:35.433Z,18.5
2022-11-28T10:31:37.405Z,16.4
2022-11-28T10:34:39.365Z,17.9
2022-11-28T10:37:41.354Z,18.1
2022-11-28T10:40:43.283Z,14.8
2022-11-28T10:43:45.276Z,16.1
2022-11-28T10:46:47.208Z,17
2022-11-28T10:49:49.174Z,18.5
2022-11-28T10:52:51.152Z,17.5
2022-11-28T10:55:53.112Z,14.8
2022-11-28T10:58:55.087Z,16.7
2022-11-28T11:01:57.106Z,16
2022-11-28T11:04:59.129Z,13.7
2022-11-28T11:08:01.094Z,13.7
2022-11-28T11:11:03.009Z,13.7
2022-11-28T11:14:04.970Z,13.7
2022-11-28T11:17:06.908Z,16.2
2022-11-28T11:20:08.884Z,12.2
2022-11-28T11:23:10.904Z,14.1
2022-11-28T11:26:12.826Z,13.1
2022-11-28T11:29:14.830Z,12.7
2022-11-28T11:32:16.765Z,11.8
2022-11-28T11:35:18.849Z,13.8
2022-11-28T11:38:20.753Z,13.1
2022-11-28T11:41:22.722Z,13.2
2022-11-28T11:44:24.679Z,14.2
2022-11-28T11:47:26.642Z,14.6
2022-11-28T11:50:28.615Z,11.7
2022-11-28T11:53:30.592Z,12.9
2022-11-28T11:56:32.555Z,15.7
2022-11-28T11:59:34.512Z,12.3
2022-11-28T12:02:36.598Z,14
2022-11-28T12:05:59.252Z,10.3
2022-11-28T12:08:40.438Z,13.1
2022-11-28T12:14:44.720Z,12.2
2022-11-28T12:17:49.074Z,15.2
2022-11-28T12:20:48.271Z,13.3
2022-11-28T12:23:50.260Z,17.1
2022-11-28T12:26:52.207Z,13.2
2022-11-28T12:29:54.166Z,15.2
2022-11-28T12:32:56.156Z,14.8
2022-11-28T12:36:01.792Z,12.9
2022-11-28T12:39:00.096Z,17.2
2022-11-28T12:42:02.110Z,14.6
2022-11-28T12:45:04.069Z,22.2
2022-11-28T12:48:06.041Z,14.6
2022-11-28T12:51:08.008Z,17.7
2022-11-28T12:54:09.965Z,19.1
2022-11-28T12:57:11.960Z,15.4
2022-11-28T13:00:14.009Z,16.9
2022-11-28T13:03:15.973Z,14.8
2022-11-28T13:06:17.848Z,16.2
2022-11-28T13:09:19.862Z,19.4
2022-11-28T13:12:21.811Z,14.6
2022-11-28T13:15:23.775Z,15.5
2022-11-28T13:18:25.723Z,14.6
2022-11-28T13:21:27.724Z,15.6
2022-11-28T13:24:29.681Z,15.4
2022-11-28T13:27:31.661Z,14
2022-11-28T13:30:33.608Z,14.1
2022-11-28T13:33:35.571Z,15.7
2022-11-28T13:39:39.501Z,15.1
2022-11-28T13:43:02.810Z,19.8
2022-11-28T13:45:43.466Z,14.5
2022-11-28T13:49:14.178Z,14
2022-11-28T13:51:47.369Z,13.1
2022-11-28T13:54:49.714Z,16.9
2022-11-28T13:57:51.306Z,16.1
2022-11-28T14:00:53.269Z,14.5
2022-11-28T14:03:55.264Z,17.1
2022-11-28T14:06:57.206Z,18.3
2022-11-28T14:10:01.283Z,17
2022-11-28T14:13:01.909Z,15.5
2022-11-28T14:16:03.115Z,18.9
2022-11-28T14:19:05.112Z,12.6
2022-11-28T14:22:07.064Z,16.8
2022-11-28T14:25:08.995Z,17.7
2022-11-28T14:28:10.999Z,16.7
2022-11-28T14:31:13.004Z,21
2022-11-28T14:34:14.930Z,16.2
2022-11-28T14:37:16.870Z,18.9
2022-11-28T14:40:18.840Z,19.2
2022-11-28T14:43:20.834Z,18.7
2022-11-28T14:46:22.854Z,13.8
2022-11-28T14:49:24.720Z,17.6
2022-11-28T14:52:38.768Z,13
2022-11-28T14:55:28.671Z,20.4
2022-11-28T14:58:30.662Z,15.4
2022-11-28T15:01:32.593Z,13.9
2022-11-28T15:04:34.563Z,15.7
2022-11-28T15:07:36.575Z,20.2
2022-11-28T15:10:38.494Z,18.5
2022-11-28T15:13:40.472Z,14.2
2022-11-28T15:16:46.737Z,18.8
2022-11-28T15:19:44.440Z,17.4
2022-11-28T15:22:46.410Z,14.5
2022-11-28T15:25:48.324Z,15.5
2022-11-28T15:28:50.320Z,16.2
2022-11-28T15:31:52.353Z,19.2
2022-11-28T15:34:54.256Z,23.6
2022-11-28T15:37:56.203Z,28.6
2022-11-28T15:40:58.189Z,26
2022-11-28T15:44:00.150Z,20.1
2022-11-28T15:47:02.124Z,17.9
2022-11-28T15:50:04.079Z,22.4
2022-11-28T15:53:06.009Z,22.9
2022-11-28T15:56:07.958Z,19.7
2022-11-28T15:59:09.971Z,21.1
2022-11-28T16:02:11.974Z,21.8
2022-11-28T16:05:13.923Z,16.2
2022-11-28T16:08:15.916Z,16.4
2022-11-28T16:11:17.942Z,21.1
2022-11-28T16:14:19.784Z,21.8
2022-11-28T16:17:21.726Z,21
2022-11-28T16:20:23.752Z,18.8
2022-11-28T16:23:25.669Z,21.2
2022-11-28T16:26:27.638Z,17.1
2022-11-28T16:29:34.489Z,18.5
2022-11-28T16:32:31.587Z,17.9
2022-11-28T16:35:33.542Z,19.6
2022-11-28T16:38:35.482Z,15.3
2022-11-28T16:41:37.481Z,21.2
2022-11-28T16:44:39.418Z,16
2022-11-28T16:47:41.377Z,14.2
2022-11-28T16:50:43.363Z,22.5
2022-11-28T16:53:45.334Z,15.1
2022-11-28T16:56:47.301Z,18.6
2022-11-28T16:59:49.227Z,18.1
2022-11-28T17:02:51.184Z,18
2022-11-28T17:05:53.142Z,21.7
2022-11-28T17:08:55.125Z,19.1
2022-11-28T17:11:57.108Z,18.7
2022-11-28T17:14:59.049Z,22
2022-11-28T17:18:01.067Z,18.5
2022-11-28T17:21:02.979Z,20.9
2022-11-28T17:24:04.960Z,22.1
2022-11-28T17:27:06.909Z,18.5
2022-11-28T17:30:08.864Z,21
2022-11-28T17:33:10.836Z,21.5
2022-11-28T17:36:12.833Z,20.4
2022-11-28T17:39:14.820Z,17.9
2022-11-28T17:42:16.765Z,19.9
2022-11-28T17:45:18.695Z,24.8
2022-11-28T17:48:20.701Z,26.7
2022-11-28T17:51:22.669Z,24.9
2022-11-28T17:54:24.628Z,24.7
2022-11-28T17:57:26.592Z,23.7
2022-11-28T18:00:28.544Z,23.3
2022-11-28T18:03:30.503Z,21.7
2022-11-28T18:06:32.463Z,24.6
2022-11-28T18:09:34.440Z,22.3
2022-11-28T18:12:36.437Z,20.3
2022-11-28T18:15:38.361Z,26.6
2022-11-28T18:18:40.331Z,22.4
2022-11-28T18:21:42.299Z,24.7
2022-11-28T18:24:44.253Z,20.7
2022-11-28T18:27:46.211Z,23.7
2022-11-28T18:30:48.183Z,24.3
2022-11-28T18:33:50.126Z,20.8
2022-11-28T18:36:52.095Z,25.8
2022-11-28T18:39:54.098Z,28.8
2022-11-28T18:42:56.033Z,26
2022-11-28T18:45:58.051Z,24.1
2022-11-28T18:48:59.984Z,29.7
2022-11-28T18:52:01.934Z,24.9
2022-11-28T18:55:03.923Z,20.5
2022-11-28T18:58:05.889Z,23.5
2022-11-28T19:01:07.894Z,24.9
2022-11-28T19:04:09.837Z,23.4
2022-11-28T19:07:11.756Z,22.9
2022-11-28T19:10:13.761Z,25.7
2022-11-28T19:13:15.675Z,25.6
2022-11-28T19:16:17.920Z,28.9
2022-11-28T19:19:19.663Z,31.1
2022-11-28T19:22:21.633Z,25.8
2022-11-28T19:25:23.587Z,25.7
2022-11-28T19:28:25.521Z,22.4
2022-11-28T19:31:27.535Z,30.4
2022-11-28T19:34:29.451Z,27.3
2022-11-28T19:37:31.456Z,24.4
2022-11-28T19:40:33.470Z,24
2022-11-28T19:43:35.357Z,29.1
2022-11-28T19:46:37.319Z,25.8
2022-11-28T19:49:39.286Z,27.6
2022-11-28T19:52:41.280Z,32.7
2022-11-28T19:55:43.223Z,24.3
2022-11-28T19:58:45.205Z,20
2022-11-28T20:01:47.226Z,30.6
2022-11-28T20:04:49.126Z,21.3
2022-11-28T20:07:54.340Z,33.5
2022-11-28T20:10:53.103Z,23.1
2022-11-28T20:13:55.067Z,26.5
2022-11-28T20:16:57.089Z,31.2
2022-11-28T20:19:59.023Z,23.1
2022-11-28T20:23:00.952Z,30.8
2022-11-28T20:26:02.913Z,27.4
2022-11-28T20:29:04.879Z,27.9
2022-11-28T20:32:06.897Z,21.5
2022-11-28T20:35:08.818Z,19.3
2022-11-28T20:38:10.781Z,24.6
2022-11-28T20:41:12.742Z,18.5
2022-11-28T20:44:14.739Z,17.9
2022-11-28T20:47:16.703Z,19
2022-11-28T20:50:18.669Z,21.2
2022-11-28T20:53:25.241Z,21.3
2022-11-28T20:56:22.613Z,19.3
2022-11-28T20:59:24.578Z,20.6
2022-11-28T21:02:26.577Z,18.9
2022-11-28T21:05:28.486Z,22.5
2022-11-28T21:08:30.529Z,24
2022-11-28T21:11:55.493Z,25.6
2022-11-28T21:14:34.388Z,27.4
2022-11-28T21:17:36.377Z,23.1
2022-11-28T21:20:38.321Z,22.3
2022-11-28T21:23:40.274Z,23.5
2022-11-28T21:26:44.133Z,22.3
2022-11-28T21:29:44.424Z,24.7
2022-11-28T21:32:46.230Z,27.2
2022-11-28T21:35:48.147Z,24
2022-11-28T21:38:50.152Z,26.8
2022-11-28T21:41:52.137Z,27.2
2022-11-28T21:44:54.054Z,31.2
2022-11-28T21:47:56.053Z,27.2
2022-11-28T21:50:57.975Z,25.3
2022-11-28T21:53:59.975Z,30.3
2022-11-28T21:57:01.905Z,31.1
2022-11-28T22:00:03.876Z,27.2
2022-11-28T22:03:08.166Z,26.4
2022-11-28T22:06:07.837Z,29.5
2022-11-28T22:09:10.013Z,28.8
2022-11-28T22:12:11.735Z,27.1
2022-11-28T22:15:13.746Z,30.3
2022-11-28T22:18:15.712Z,22.8
2022-11-28T22:21:50.395Z,24.7
2022-11-28T22:24:19.661Z,22.8
2022-11-28T22:27:21.588Z,23
2022-11-28T22:30:23.578Z,27.8
2022-11-28T22:33:25.516Z,25.6
2022-11-28T22:36:27.481Z,28.9
2022-11-28T22:39:29.457Z,27.9
2022-11-28T22:42:31.408Z,28
2022-11-28T22:45:33.490Z,28.9
2022-11-28T22:48:35.367Z,29.8
2022-11-28T22:51:37.375Z,31.9
2022-11-28T22:54:39.285Z,28.4
2022-11-28T22:57:41.236Z,28.8
2022-11-28T23:00:43.217Z,32.4
2022-11-28T23:03:45.216Z,27.4
2022-11-28T23:06:47.160Z,29.6
2022-11-28T23:09:49.124Z,31.7
2022-11-28T23:12:51.103Z,30.3
2022-11-28T23:15:53.186Z,28
2022-11-28T23:18:55.030Z,29.9
2022-11-28T23:21:56.984Z,29.9
2022-11-28T23:24:58.951Z,27
2022-11-28T23:28:00.957Z,24.2
2022-11-28T23:31:02.879Z,25.5
2022-11-28T23:34:04.881Z,27.3
2022-11-28T23:37:06.807Z,27.1
2022-11-28T23:40:08.837Z,25.2
2022-11-28T23:43:10.792Z,26.8
2022-11-28T23:46:12.865Z,29.6
2022-11-28T23:49:14.990Z,32.3
2022-11-28T23:52:16.677Z,33.3
2022-11-28T23:55:18.642Z,28.9
2022-11-28T23:58:20.583Z,34.3
